Time;durP1;ratioP1;P1;durP2;ratioP2;P2;SDS_P1;SDS_P2;PMS_P1;PMS_P2;Temp;Humidity;BMP_temperature;BMP_pressure;BME280_temperature;BME280_humidity;BME280_pressure;Samples;Min_cycle;Max_cycle;Signal;HPM_P1;HPM_P2
2023/09/21 00:01:11;;;;;;;0.50;0.10;;;17.80;99.90;;;;;;5077289;28;20518;-70
2023/09/21 00:03:39;;;;;;;0.55;0.28;;;17.70;99.90;;;;;;5082077;28;20044;-70
2023/09/21 00:06:05;;;;;;;0.68;0.40;;;17.70;99.90;;;;;;5097965;28;20484;-70
2023/09/21 00:08:31;;;;;;;0.63;0.10;;;17.70;99.90;;;;;;5082886;28;20055;-71
2023/09/21 00:11:07;;;;;;;0.43;0.30;;;17.60;99.90;;;;;;5113325;27;20066;-70
2023/09/21 00:13:33;;;;;;;0.55;0.20;;;17.60;99.90;;;;;;5101474;28;20052;-70
2023/09/21 00:16:02;;;;;;;0.40;0.20;;;17.60;99.90;;;;;;5115392;27;20061;-70
2023/09/21 00:18:29;;;;;;;0.60;0.22;;;17.60;99.90;;;;;;5081812;28;20097;-71
2023/09/21 00:20:55;;;;;;;0.40;0.32;;;17.70;99.90;;;;;;5112827;27;20560;-70
2023/09/21 00:23:25;;;;;;;0.57;0.28;;;17.70;99.90;;;;;;5084691;28;20141;-71
2023/09/21 00:25:58;;;;;;;2.58;0.30;;;17.70;99.90;;;;;;5084280;28;20044;-70
2023/09/21 00:28:28;;;;;;;0.60;0.28;;;17.60;99.90;;;;;;5079039;28;20112;-70
2023/09/21 00:30:58;;;;;;;0.40;0.17;;;17.60;99.90;;;;;;5081993;28;20092;-71
2023/09/21 00:33:29;;;;;;;0.32;0.10;;;17.60;99.90;;;;;;5101390;28;20048;-70
2023/09/21 00:35:57;;;;;;;1.55;0.32;;;17.50;99.90;;;;;;5080289;28;20044;-70
2023/09/21 00:38:24;;;;;;;0.28;0.20;;;17.50;99.90;;;;;;5113984;27;20136;-71
2023/09/21 00:40:55;;;;;;;0.10;0.10;;;17.50;99.90;;;;;;5081433;28;20379;-71
2023/09/21 00:43:24;;;;;;;0.77;0.20;;;17.50;99.90;;;;;;5100453;28;20123;-70
2023/09/21 00:45:57;;;;;;;0.50;0.22;;;17.60;99.90;;;;;;5083153;28;20450;-71
2023/09/21 00:48:33;;;;;;;0.77;0.38;;;17.50;99.90;;;;;;5080436;28;20468;-70
2023/09/21 00:51:01;;;;;;;0.60;0.20;;;17.50;99.90;;;;;;5084984;28;20048;-70
2023/09/21 00:53:28;;;;;;;1.50;0.30;;;17.60;99.90;;;;;;5077988;28;20054;-70
2023/09/21 00:56:08;;;;;;;0.90;0.30;;;17.60;99.90;;;;;;5081143;28;20032;-70
2023/09/21 00:58:36;;;;;;;0.70;0.40;;;17.60;99.90;;;;;;5100724;28;20035;-70
2023/09/21 01:01:03;;;;;;;0.80;0.30;;;17.60;99.90;;;;;;5121105;27;20070;-70
2023/09/21 01:03:29;;;;;;;1.20;0.35;;;17.70;99.90;;;;;;5069029;28;20090;-71
2023/09/21 01:05:55;;;;;;;0.22;0.20;;;17.70;99.90;;;;;;5120155;27;20078;-70
2023/09/21 01:08:28;;;;;;;0.73;0.20;;;17.70;99.90;;;;;;5073418;28;20093;-70
2023/09/21 01:10:55;;;;;;;2.17;0.30;;;17.70;99.90;;;;;;5123587;27;20040;-71
2023/09/21 01:13:21;;;;;;;2.40;0.30;;;17.70;99.90;;;;;;5085426;28;20042;-71
2023/09/21 01:16:01;;;;;;;0.70;0.30;;;17.70;99.90;;;;;;5121670;27;20032;-71
2023/09/21 01:18:27;;;;;;;0.40;0.20;;;17.80;99.90;;;;;;5082006;28;20115;-71
2023/09/21 01:20:59;;;;;;;0.95;0.38;;;17.80;99.90;;;;;;5119294;27;20039;-71
2023/09/21 01:23:36;;;;;;;2.33;0.50;;;17.90;99.90;;;;;;5082660;28;20127;-71
2023/09/21 01:26:02;;;;;;;0.88;0.20;;;17.90;99.90;;;;;;5089919;28;20036;-71
2023/09/21 01:28:29;;;;;;;0.63;0.20;;;18.00;99.90;;;;;;5114907;27;20426;-70
2023/09/21 01:30:58;;;;;;;2.30;0.35;;;18.00;99.90;;;;;;5117998;27;20043;-70
2023/09/21 01:33:24;;;;;;;0.32;0.17;;;17.90;99.90;;;;;;5084481;28;20036;-71
2023/09/21 01:35:50;;;;;;;0.50;0.10;;;18.00;99.90;;;;;;5082621;28;20126;-71
2023/09/21 01:38:19;;;;;;;0.40;0.17;;;18.00;99.90;;;;;;5084647;28;20054;-70
2023/09/21 01:40:46;;;;;;;0.50;0.10;;;18.00;99.90;;;;;;5088740;28;20071;-70
2023/09/21 01:43:16;;;;;;;0.70;0.20;;;18.00;99.90;;;;;;5123196;27;21179;-70
2023/09/21 01:45:48;;;;;;;0.93;0.30;;;18.10;99.90;;;;;;5080836;28;20138;-71
2023/09/21 01:48:15;;;;;;;0.30;0.10;;;18.00;99.90;;;;;;5121453;27;20040;-70
2023/09/21 01:50:46;;;;;;;1.73;0.50;;;18.10;99.90;;;;;;5118351;27;20153;-70
2023/09/21 01:53:12;;;;;;;0.60;0.17;;;18.10;99.90;;;;;;5079727;28;20102;-71
2023/09/21 01:55:39;;;;;;;0.90;0.40;;;18.10;99.90;;;;;;5089368;28;20103;-71
2023/09/21 01:58:06;;;;;;;1.05;0.25;;;18.20;99.90;;;;;;5120816;27;20044;-71
2023/09/21 02:00:36;;;;;;;0.40;0.20;;;18.20;99.90;;;;;;5116166;27;20044;-71
2023/09/21 02:03:04;;;;;;;0.55;0.20;;;18.20;99.90;;;;;;5118205;27;20101;-71
2023/09/21 02:05:30;;;;;;;0.40;0.20;;;18.20;99.90;;;;;;5081038;28;20066;-70
2023/09/21 02:07:56;;;;;;;0.20;0.15;;;18.20;99.90;;;;;;5089339;28;20047;-71
2023/09/21 02:10:22;;;;;;;0.52;0.20;;;18.20;99.90;;;;;;5081425;28;20403;-71
2023/09/21 02:12:55;;;;;;;0.70;0.40;;;18.20;99.90;;;;;;5123183;27;20036;-71
2023/09/21 02:15:22;;;;;;;1.65;0.28;;;18.20;99.90;;;;;;5090067;28;20510;-71
2023/09/21 02:17:48;;;;;;;0.45;0.20;;;18.10;99.90;;;;;;5122610;27;20045;-71
2023/09/21 02:20:14;;;;;;;0.55;0.30;;;18.10;99.90;;;;;;5116350;27;20090;-71
2023/09/21 02:22:44;;;;;;;0.52;0.20;;;18.10;99.90;;;;;;5088722;28;20495;-71
2023/09/21 02:25:10;;;;;;;0.73;0.20;;;18.10;99.90;;;;;;5117612;27;20445;-70
2023/09/21 02:27:37;;;;;;;0.40;0.13;;;18.10;99.90;;;;;;5113590;27;20039;-70
2023/09/21 02:30:05;;;;;;;0.45;0.13;;;18.10;99.90;;;;;;5083238;28;20457;-71
2023/09/21 02:32:33;;;;;;;0.30;0.15;;;18.10;99.90;;;;;;5067442;28;20044;-71
2023/09/21 02:35:00;;;;;;;0.40;0.22;;;18.10;99.90;;;;;;5098134;28;20047;-71
2023/09/21 02:37:26;;;;;;;0.30;0.10;;;18.10;99.90;;;;;;5116529;27;20068;-71
2023/09/21 02:39:51;;;;;;;0.63;0.10;;;18.10;99.90;;;;;;5118472;27;20075;-71
2023/09/21 02:42:17;;;;;;;0.90;0.30;;;18.00;99.90;;;;;;5078350;28;20039;-71
2023/09/21 02:44:45;;;;;;;0.00;0.00;;;18.00;99.90;;;;;;5114557;27;20100;-71
2023/09/21 02:47:11;;;;;;;3.20;0.30;;;18.00;99.90;;;;;;5085406;28;20050;-71
2023/09/21 02:49:37;;;;;;;0.80;0.30;;;18.00;99.90;;;;;;5080019;28;20044;-71
2023/09/21 02:52:04;;;;;;;0.15;0.10;;;17.90;99.90;;;;;;5081463;28;20073;-71
2023/09/21 02:54:32;;;;;;;1.05;0.55;;;17.90;99.90;;;;;;5114837;27;20040;-71
2023/09/21 02:56:59;;;;;;;0.70;0.28;;;17.90;99.90;;;;;;5064812;28;20093;-71
2023/09/21 02:59:28;;;;;;;1.02;0.40;;;17.80;99.90;;;;;;5084847;28;20140;-71
2023/09/21 03:01:54;;;;;;;1.25;0.30;;;17.80;99.90;;;;;;5078690;28;20120;-71
2023/09/21 03:04:20;;;;;;;0.35;0.20;;;17.70;99.90;;;;;;5100144;28;20068;-71
2023/09/21 03:06:46;;;;;;;0.57;0.30;;;17.70;99.90;;;;;;5081055;28;20289;-71
2023/09/21 03:09:11;;;;;;;0.30;0.10;;;17.70;99.90;;;;;;5085028;28;20482;-71
2023/09/21 03:11:39;;;;;;;1.20;0.20;;;17.70;99.90;;;;;;5077566;28;20040;-71
2023/09/21 03:14:05;;;;;;;0.93;0.20;;;17.70;99.90;;;;;;5083072;28;20046;-70
2023/09/21 03:16:32;;;;;;;0.43;0.30;;;17.70;99.90;;;;;;5118153;27;20407;-71
2023/09/21 03:18:58;;;;;;;0.25;0.20;;;17.70;99.90;;;;;;5114637;27;20715;-71
2023/09/21 03:21:24;;;;;;;0.32;0.20;;;17.60;99.90;;;;;;5063304;28;20790;-71
2023/09/21 03:23:52;;;;;;;0.63;0.10;;;17.70;99.90;;;;;;5081178;28;20040;-70
2023/09/21 03:26:18;;;;;;;0.40;0.28;;;17.60;99.90;;;;;;5096293;28;20086;-71
2023/09/21 03:28:47;;;;;;;0.90;0.20;;;17.60;99.90;;;;;;5113860;27;20280;-71
2023/09/21 03:31:13;;;;;;;0.68;0.30;;;17.60;99.90;;;;;;5082103;28;20027;-71
2023/09/21 03:33:38;;;;;;;0.35;0.20;;;17.60;99.90;;;;;;5116733;27;20122;-70
2023/09/21 03:36:04;;;;;;;1.10;0.40;;;17.60;99.90;;;;;;5113022;27;20512;-71
2023/09/21 03:38:30;;;;;;;0.70;0.30;;;17.60;99.90;;;;;;5118415;27;20044;-71
2023/09/21 03:40:57;;;;;;;1.50;0.40;;;17.60;99.90;;;;;;5078645;28;20032;-71
2023/09/21 03:43:23;;;;;;;1.00;0.30;;;17.60;99.90;;;;;;5081931;28;20043;-71
2023/09/21 03:45:50;;;;;;;0.43;0.30;;;17.60;99.90;;;;;;5103035;28;20407;-71
2023/09/21 03:48:16;;;;;;;0.43;0.20;;;17.60;99.90;;;;;;5081867;28;20032;-71
2023/09/21 03:50:42;;;;;;;0.47;0.20;;;17.60;99.90;;;;;;5080286;28;20032;-71
2023/09/21 03:53:09;;;;;;;0.40;0.20;;;17.50;99.90;;;;;;5065858;28;20406;-71
2023/09/21 03:55:35;;;;;;;0.55;0.20;;;17.50;99.90;;;;;;5119095;27;20036;-71
2023/09/21 03:58:02;;;;;;;1.00;0.20;;;17.50;99.90;;;;;;5081165;28;20058;-71
2023/09/21 04:03:01;;;;;;;2.85;0.20;;;17.50;99.90;;;;;;5115990;27;20361;-71
2023/09/21 04:05:30;;;;;;;1.42;0.20;;;17.50;99.90;;;;;;5116737;27;20073;-71
2023/09/21 04:07:56;;;;;;;0.68;0.30;;;17.50;99.90;;;;;;5093624;28;20043;-71
2023/09/21 04:10:22;;;;;;;0.50;0.20;;;17.50;99.90;;;;;;5084505;28;20399;-71
2023/09/21 04:12:50;;;;;;;0.43;0.30;;;17.50;99.90;;;;;;5114903;27;20039;-71
2023/09/21 04:15:16;;;;;;;0.77;0.20;;;17.50;99.90;;;;;;5066040;28;20043;-71
2023/09/21 04:17:42;;;;;;;0.32;0.13;;;17.50;99.90;;;;;;5081806;28;20487;-72
2023/09/21 04:20:14;;;;;;;0.98;0.20;;;17.40;99.90;;;;;;5078320;28;20040;-71
2023/09/21 04:22:41;;;;;;;1.10;0.35;;;17.50;99.90;;;;;;5077849;28;20111;-71
2023/09/21 04:25:08;;;;;;;0.10;0.10;;;17.40;99.90;;;;;;5083777;28;20339;-71
2023/09/21 04:27:39;;;;;;;0.38;0.17;;;17.40;99.90;;;;;;5112110;27;20115;-71
2023/09/21 04:30:12;;;;;;;1.23;0.40;;;17.40;99.90;;;;;;5114906;27;20547;-71
2023/09/21 04:32:38;;;;;;;2.05;0.30;;;17.30;99.90;;;;;;5114267;27;20503;-71
2023/09/21 04:35:05;;;;;;;0.68;0.20;;;17.30;99.90;;;;;;5108525;27;20044;-71
2023/09/21 04:37:33;;;;;;;0.43;0.17;;;17.40;99.90;;;;;;5081050;28;20503;-70
2023/09/21 04:40:01;;;;;;;0.28;0.13;;;17.40;99.90;;;;;;5083574;28;20500;-70
2023/09/21 04:42:31;;;;;;;0.95;0.22;;;17.40;99.90;;;;;;5111466;28;20098;-71
2023/09/21 04:44:58;;;;;;;3.03;0.30;;;17.40;99.90;;;;;;5094497;28;20055;-71
2023/09/21 04:47:25;;;;;;;2.05;0.30;;;17.40;99.90;;;;;;5063409;28;20040;-71
2023/09/21 04:49:54;;;;;;;1.00;0.20;;;17.40;99.90;;;;;;5115077;27;20122;-70
2023/09/21 04:52:21;;;;;;;1.02;0.30;;;17.40;99.90;;;;;;5079416;28;20118;-70
2023/09/21 04:54:51;;;;;;;0.10;0.10;;;17.40;99.90;;;;;;5077904;28;20516;-70
2023/09/21 04:57:18;;;;;;;1.08;0.38;;;17.40;99.90;;;;;;5078163;28;20043;-71
2023/09/21 04:59:44;;;;;;;1.00;0.40;;;17.40;99.90;;;;;;5081381;28;20504;-70
2023/09/21 05:02:10;;;;;;;1.17;0.55;;;17.50;99.90;;;;;;5080604;28;20112;-70
2023/09/21 05:04:36;;;;;;;0.30;0.20;;;17.50;99.90;;;;;;5064158;28;20043;-70
2023/09/21 05:07:02;;;;;;;1.17;0.38;;;17.50;99.90;;;;;;5075168;28;20056;-71
2023/09/21 05:09:28;;;;;;;0.30;0.20;;;17.50;99.90;;;;;;5080152;28;20052;-71
2023/09/21 05:11:54;;;;;;;0.38;0.10;;;17.50;99.90;;;;;;5110509;28;20078;-70
2023/09/21 05:14:21;;;;;;;0.55;0.20;;;17.50;99.90;;;;;;5093907;28;20032;-70
2023/09/21 05:16:47;;;;;;;0.57;0.10;;;17.50;99.90;;;;;;5078782;28;20432;-71
2023/09/21 05:19:14;;;;;;;0.40;0.20;;;17.50;99.90;;;;;;5079718;28;20035;-71
2023/09/21 05:21:40;;;;;;;1.13;0.20;;;17.50;99.90;;;;;;5111770;27;20379;-71
2023/09/21 05:24:10;;;;;;;1.88;0.50;;;17.60;99.90;;;;;;5080233;28;20067;-71
2023/09/21 05:26:36;;;;;;;3.00;0.22;;;17.60;99.90;;;;;;5079213;28;20044;-71
2023/09/21 05:29:02;;;;;;;0.70;0.55;;;17.60;99.90;;;;;;5112861;28;20036;-71
2023/09/21 05:31:28;;;;;;;0.90;0.40;;;17.60;99.90;;;;;;5115098;28;20573;-71
2023/09/21 05:33:54;;;;;;;0.82;0.22;;;17.60;99.90;;;;;;5083256;28;20043;-70
2023/09/21 05:36:21;;;;;;;1.08;0.40;;;17.70;99.90;;;;;;5112602;28;20094;-71
2023/09/21 05:38:47;;;;;;;0.50;0.20;;;17.70;99.90;;;;;;5111780;28;20130;-71
2023/09/21 05:41:12;;;;;;;1.13;0.35;;;17.80;99.90;;;;;;5112537;28;20115;-71
2023/09/21 05:43:40;;;;;;;2.58;0.38;;;17.80;99.90;;;;;;5076933;28;20456;-71
2023/09/21 05:46:05;;;;;;;0.80;0.38;;;17.90;99.90;;;;;;5079846;28;20539;-71
2023/09/21 05:48:32;;;;;;;1.02;0.22;;;17.90;99.90;;;;;;5113481;27;20142;-71
2023/09/21 05:50:59;;;;;;;1.55;0.30;;;17.90;99.90;;;;;;5087900;28;20047;-71
2023/09/21 05:53:25;;;;;;;1.85;0.80;;;17.90;99.90;;;;;;5101243;27;20123;-71
2023/09/21 05:55:51;;;;;;;0.98;0.50;;;17.90;99.90;;;;;;5083535;28;20107;-71
2023/09/21 05:58:17;;;;;;;1.02;0.30;;;17.90;99.90;;;;;;5083738;28;20126;-71
2023/09/21 06:00:43;;;;;;;2.03;0.60;;;17.90;99.90;;;;;;5115106;27;20096;-71
2023/09/21 06:03:08;;;;;;;0.43;0.15;;;17.90;99.90;;;;;;5113360;27;20051;-71
2023/09/21 06:05:34;;;;;;;1.10;0.10;;;18.00;99.90;;;;;;5114313;27;20078;-71
2023/09/21 06:08:00;;;;;;;0.95;0.28;;;17.90;99.90;;;;;;5111376;27;20048;-71
2023/09/21 06:10:25;;;;;;;1.00;0.40;;;17.90;99.90;;;;;;5116473;27;20114;-71
2023/09/21 06:12:51;;;;;;;3.33;0.32;;;18.00;99.90;;;;;;5063029;28;20051;-71
2023/09/21 06:15:18;;;;;;;2.05;0.32;;;18.00;99.90;;;;;;5079335;28;20032;-71
2023/09/21 06:17:43;;;;;;;0.93;0.22;;;18.00;99.90;;;;;;5118515;27;20032;-71
2023/09/21 06:20:11;;;;;;;0.38;0.30;;;18.10;99.90;;;;;;5068209;28;20056;-71
2023/09/21 06:22:37;;;;;;;0.80;0.20;;;18.10;99.90;;;;;;5081750;28;20226;-71
2023/09/21 06:25:05;;;;;;;0.28;0.15;;;18.10;99.90;;;;;;5082505;28;20075;-71
2023/09/21 06:27:31;;;;;;;0.77;0.32;;;18.10;99.90;;;;;;5083245;28;20040;-71
2023/09/21 06:29:58;;;;;;;0.57;0.20;;;18.20;99.90;;;;;;5073355;28;20034;-72
2023/09/21 06:32:24;;;;;;;0.90;0.30;;;18.10;99.90;;;;;;5099819;28;20040;-71
2023/09/21 06:34:51;;;;;;;0.35;0.15;;;18.20;99.90;;;;;;5079883;28;20472;-71
2023/09/21 06:37:19;;;;;;;1.05;0.30;;;18.20;99.90;;;;;;5081556;28;20083;-71
2023/09/21 06:39:45;;;;;;;0.30;0.20;;;18.10;99.90;;;;;;5082323;28;20052;-71
2023/09/21 06:42:11;;;;;;;0.22;0.20;;;18.10;99.90;;;;;;5099693;28;20492;-71
2023/09/21 06:44:37;;;;;;;1.27;0.38;;;18.00;99.90;;;;;;5069687;28;20064;-71
2023/09/21 06:47:03;;;;;;;0.40;0.20;;;18.10;99.90;;;;;;5116334;27;20067;-70
2023/09/21 06:49:29;;;;;;;1.60;0.50;;;18.00;99.90;;;;;;5066765;28;20067;-71
2023/09/21 06:51:56;;;;;;;0.10;0.10;;;18.00;99.90;;;;;;5079183;28;20039;-70
2023/09/21 06:54:26;;;;;;;0.85;0.38;;;18.00;99.90;;;;;;5113435;27;20114;-71
2023/09/21 06:56:52;;;;;;;3.03;0.60;;;18.00;99.90;;;;;;5065707;28;20036;-70
2023/09/21 06:59:18;;;;;;;0.70;0.20;;;18.00;99.90;;;;;;5118679;27;20077;-71
2023/09/21 07:01:44;;;;;;;2.65;0.60;;;17.90;99.90;;;;;;5096304;28;20465;-70
2023/09/21 07:04:09;;;;;;;0.63;0.30;;;17.90;99.90;;;;;;5079750;28;20051;-71
2023/09/21 07:06:39;;;;;;;1.10;0.35;;;17.90;99.90;;;;;;5080275;28;20447;-70
2023/09/21 07:09:05;;;;;;;0.55;0.30;;;17.90;99.90;;;;;;5079177;28;20075;-71
2023/09/21 07:11:33;;;;;;;1.92;0.28;;;17.80;99.90;;;;;;5115125;27;20083;-70
2023/09/21 07:13:59;;;;;;;1.98;0.30;;;17.80;99.90;;;;;;5082757;28;20503;-70
2023/09/21 07:16:24;;;;;;;0.75;0.30;;;17.70;99.90;;;;;;5116429;27;20035;-71
2023/09/21 07:18:50;;;;;;;1.40;0.40;;;17.70;99.90;;;;;;5081742;28;20059;-71
2023/09/21 07:21:16;;;;;;;0.75;0.40;;;17.70;99.90;;;;;;5096442;28;20066;-70
2023/09/21 07:23:42;;;;;;;1.13;0.28;;;17.70;99.90;;;;;;5114722;27;20063;-70
2023/09/21 07:26:08;;;;;;;1.38;0.35;;;17.70;99.90;;;;;;5118827;27;20657;-70
2023/09/21 07:28:34;;;;;;;1.30;0.20;;;17.70;99.90;;;;;;5081970;28;20051;-71
2023/09/21 07:31:01;;;;;;;0.20;0.20;;;17.70;99.90;;;;;;5099511;28;20068;-70
2023/09/21 07:33:30;;;;;;;1.52;0.47;;;17.70;99.90;;;;;;5117353;27;20036;-70
2023/09/21 07:35:56;;;;;;;1.75;0.32;;;17.80;99.90;;;;;;5080747;28;20046;-71
2023/09/21 07:38:23;;;;;;;0.40;0.28;;;17.80;99.90;;;;;;5118689;27;20107;-70
2023/09/21 07:40:49;;;;;;;1.05;0.40;;;17.80;99.90;;;;;;5079376;28;20073;-70
2023/09/21 07:43:16;;;;;;;1.48;0.30;;;17.90;99.90;;;;;;5079893;28;20133;-71
2023/09/21 07:45:45;;;;;;;0.70;0.40;;;17.90;99.90;;;;;;5084398;28;20427;-70
2023/09/21 07:48:10;;;;;;;0.28;0.20;;;17.90;99.90;;;;;;5082681;28;20115;-70
2023/09/21 07:50:36;;;;;;;0.52;0.10;;;17.90;99.90;;;;;;5096760;28;20560;-71
2023/09/21 07:53:05;;;;;;;0.90;0.30;;;17.90;99.90;;;;;;5110931;27;20065;-71
2023/09/21 07:55:31;;;;;;;1.08;0.50;;;18.00;99.90;;;;;;5082648;28;20861;-70
2023/09/21 07:57:56;;;;;;;1.00;0.40;;;17.90;99.90;;;;;;5097995;28;20139;-71
2023/09/21 08:00:22;;;;;;;1.45;0.30;;;18.00;99.90;;;;;;5083243;28;20392;-70
2023/09/21 08:02:49;;;;;;;0.80;0.30;;;18.00;99.90;;;;;;5095419;28;20043;-70
2023/09/21 08:05:15;;;;;;;1.60;0.50;;;17.90;99.90;;;;;;5095186;27;20043;-70
2023/09/21 08:07:41;;;;;;;1.35;0.47;;;17.90;99.90;;;;;;5093985;28;20396;-69
2023/09/21 08:10:08;;;;;;;0.40;0.20;;;17.90;99.90;;;;;;5058871;28;20036;-69
2023/09/21 08:12:38;;;;;;;0.45;0.30;;;17.80;99.90;;;;;;5057601;28;20127;-69
2023/09/21 08:15:11;;;;;;;0.65;0.40;;;17.80;99.90;;;;;;5067191;28;20044;-69
2023/09/21 08:17:37;;;;;;;2.42;0.40;;;17.80;99.90;;;;;;5061869;28;20040;-69
2023/09/21 08:20:10;;;;;;;0.70;0.40;;;17.70;99.90;;;;;;5076508;28;20040;-69
2023/09/21 08:22:37;;;;;;;2.67;0.60;;;17.70;99.90;;;;;;5060471;28;20032;-69
2023/09/21 08:25:04;;;;;;;2.10;0.45;;;17.70;99.90;;;;;;5066986;28;20050;-69
2023/09/21 08:27:30;;;;;;;0.52;0.30;;;17.70;99.90;;;;;;5059667;28;20091;-69
2023/09/21 08:29:57;;;;;;;0.43;0.22;;;17.70;99.90;;;;;;5060092;28;20500;-68
2023/09/21 08:32:24;;;;;;;0.45;0.28;;;17.70;99.90;;;;;;5062150;28;20428;-68
2023/09/21 08:34:50;;;;;;;0.40;0.08;;;17.70;99.90;;;;;;5058938;28;20404;-68
2023/09/21 08:37:16;;;;;;;0.35;0.20;;;17.70;99.90;;;;;;5060073;28;20052;-68
2023/09/21 08:39:41;;;;;;;1.48;0.60;;;17.70;99.90;;;;;;5091693;28;20488;-68
2023/09/21 08:42:09;;;;;;;0.57;0.22;;;17.70;99.90;;;;;;5040448;28;20044;-69
2023/09/21 08:44:39;;;;;;;0.73;0.52;;;17.70;99.90;;;;;;5065195;28;20032;-68
2023/09/21 08:47:11;;;;;;;0.32;0.17;;;17.70;99.90;;;;;;5064002;28;20029;-68
2023/09/21 08:49:39;;;;;;;0.73;0.22;;;17.70;99.90;;;;;;5095575;28;20529;-68
2023/09/21 08:52:07;;;;;;;1.17;0.30;;;17.70;99.90;;;;;;5067237;28;20090;-68
2023/09/21 08:54:33;;;;;;;0.40;0.20;;;17.70;99.90;;;;;;5062971;28;20348;-67
2023/09/21 08:57:01;;;;;;;1.15;0.52;;;17.70;99.90;;;;;;5060486;28;20067;-67
2023/09/21 08:59:29;;;;;;;0.80;0.40;;;17.70;99.90;;;;;;5066139;28;20033;-67
2023/09/21 09:01:55;;;;;;;0.45;0.30;;;17.70;99.90;;;;;;5059420;28;20241;-67
2023/09/21 09:04:21;;;;;;;0.90;0.30;;;17.70;99.90;;;;;;5068542;28;20055;-67
2023/09/21 09:06:47;;;;;;;0.80;0.35;;;17.80;99.90;;;;;;5088326;28;20045;-67
2023/09/21 09:09:15;;;;;;;0.57;0.30;;;17.80;99.90;;;;;;5098940;28;20035;-67
2023/09/21 09:11:44;;;;;;;1.00;0.43;;;17.80;99.90;;;;;;5103961;28;20421;-67
2023/09/21 09:14:16;;;;;;;0.95;0.52;;;17.80;99.90;;;;;;5081348;28;20488;-67
2023/09/21 09:16:46;;;;;;;0.40;0.20;;;17.80;99.90;;;;;;5104381;28;20483;-67
2023/09/21 09:19:12;;;;;;;1.20;0.40;;;17.80;99.90;;;;;;5100646;28;20043;-67
2023/09/21 09:21:40;;;;;;;0.65;0.38;;;17.70;99.90;;;;;;5118424;28;20146;-67
2023/09/21 09:24:08;;;;;;;0.40;0.30;;;17.70;99.90;;;;;;5103670;28;20076;-67
2023/09/21 09:26:38;;;;;;;2.13;0.57;;;17.70;99.90;;;;;;5106226;28;20044;-67
2023/09/21 09:29:07;;;;;;;0.95;0.52;;;17.70;99.90;;;;;;5106644;28;20471;-67
2023/09/21 09:31:35;;;;;;;0.70;0.30;;;17.60;99.90;;;;;;5108677;28;20046;-67
2023/09/21 09:34:04;;;;;;;0.90;0.40;;;17.60;99.90;;;;;;5102516;28;20040;-68
2023/09/21 09:36:32;;;;;;;0.43;0.20;;;17.50;99.90;;;;;;5104259;28;20420;-67
2023/09/21 09:39:01;;;;;;;0.73;0.40;;;17.50;99.90;;;;;;5107232;28;20044;-67
2023/09/21 09:41:28;;;;;;;1.25;0.50;;;17.50;99.90;;;;;;5102589;28;20024;-67
2023/09/21 09:43:59;;;;;;;0.52;0.30;;;17.40;99.90;;;;;;5103355;28;20089;-68
2023/09/21 09:46:26;;;;;;;0.75;0.30;;;17.40;99.90;;;;;;5086796;28;20486;-67
2023/09/21 09:48:58;;;;;;;0.35;0.13;;;17.40;99.90;;;;;;5104051;28;20071;-67
2023/09/21 09:51:48;;;;;;;0.17;0.10;;;17.30;99.90;;;;;;5100584;28;20063;-66
2023/09/21 09:54:16;;;;;;;0.43;0.20;;;17.20;99.90;;;;;;5100141;28;20109;-66
2023/09/21 09:56:42;;;;;;;0.08;0.05;;;17.00;99.90;;;;;;5105162;28;20043;-66
2023/09/21 09:59:12;;;;;;;0.17;0.10;;;16.90;99.90;;;;;;5101985;27;20043;-66
2023/09/21 10:01:39;;;;;;;0.25;0.00;;;16.90;99.90;;;;;;5105062;28;20036;-67
2023/09/21 10:04:08;;;;;;;0.43;0.00;;;16.80;99.90;;;;;;5101794;28;20078;-66
2023/09/21 10:06:36;;;;;;;0.13;0.10;;;16.80;99.90;;;;;;5085000;28;20067;-66
2023/09/21 10:09:13;;;;;;;0.00;0.00;;;16.80;99.90;;;;;;5102141;28;20395;-66
2023/09/21 10:11:48;;;;;;;0.60;0.20;;;16.60;99.90;;;;;;5102460;27;20044;-67
2023/09/21 10:14:26;;;;;;;0.17;0.03;;;16.50;99.90;;;;;;5099473;28;20040;-67
2023/09/21 10:16:57;;;;;;;1.33;0.10;;;16.40;99.90;;;;;;5103090;28;20032;-67
2023/09/21 10:19:25;;;;;;;0.00;0.00;;;16.40;99.90;;;;;;5099238;28;20063;-67
2023/09/21 10:21:56;;;;;;;0.10;0.00;;;16.40;99.90;;;;;;5100702;28;20040;-67
2023/09/21 10:24:26;;;;;;;0.00;0.00;;;16.30;99.90;;;;;;5102899;28;20036;-67
2023/09/21 10:26:56;;;;;;;0.10;0.05;;;16.30;99.90;;;;;;5101708;28;20041;-67
2023/09/21 10:29:32;;;;;;;0.32;0.08;;;16.30;99.90;;;;;;5098450;28;20660;-67
2023/09/21 10:32:01;;;;;;;0.03;0.00;;;16.30;99.90;;;;;;5106130;28;20058;-67
2023/09/21 10:34:28;;;;;;;0.00;0.00;;;16.30;99.90;;;;;;5103127;28;20315;-67
2023/09/21 10:37:15;;;;;;;1.90;0.08;;;16.20;99.90;;;;;;5096881;28;20036;-67
2023/09/21 10:39:44;;;;;;;0.00;0.00;;;16.20;99.90;;;;;;5099999;28;20548;-67
2023/09/21 10:42:09;;;;;;;0.45;0.00;;;16.20;99.90;;;;;;5084964;28;20495;-67
2023/09/21 10:45:04;;;;;;;0.15;0.00;;;16.10;99.90;;;;;;5098512;27;20088;-67
2023/09/21 10:47:36;;;;;;;0.00;0.00;;;16.10;99.90;;;;;;5093920;28;20116;-67
2023/09/21 10:50:06;;;;;;;0.05;0.00;;;16.10;99.90;;;;;;5100728;28;20487;-67
2023/09/21 10:52:33;;;;;;;1.45;0.25;;;16.10;99.90;;;;;;5099301;28;20047;-67
2023/09/21 10:54:59;;;;;;;0.00;0.00;;;16.10;99.90;;;;;;5100936;28;20046;-67
2023/09/21 10:57:29;;;;;;;0.10;0.00;;;16.10;99.90;;;;;;5096241;28;20119;-67
2023/09/21 10:59:59;;;;;;;0.10;0.00;;;16.10;99.90;;;;;;5104708;28;20039;-67
2023/09/21 11:02:26;;;;;;;0.08;0.00;;;16.20;99.90;;;;;;5099347;28;20310;-67
2023/09/21 11:04:52;;;;;;;0.00;0.00;;;16.20;99.90;;;;;;5089517;28;20048;-67
2023/09/21 11:07:21;;;;;;;0.52;0.10;;;16.20;99.90;;;;;;5112792;27;20218;-67
2023/09/21 11:09:48;;;;;;;0.10;0.00;;;16.20;99.90;;;;;;5104821;28;20405;-67
2023/09/21 11:12:14;;;;;;;0.10;0.00;;;16.20;99.90;;;;;;5103975;28;20161;-67
2023/09/21 11:14:47;;;;;;;0.00;0.00;;;16.20;99.90;;;;;;5101827;28;20039;-67
2023/09/21 11:17:17;;;;;;;0.10;0.10;;;16.20;99.90;;;;;;5097286;28;20116;-67
2023/09/21 11:19:44;;;;;;;0.22;0.10;;;16.20;99.90;;;;;;5103465;28;20464;-67
2023/09/21 11:22:10;;;;;;;0.20;0.00;;;16.10;99.90;;;;;;5104649;27;20394;-68
2023/09/21 11:24:37;;;;;;;0.00;0.00;;;16.00;99.90;;;;;;5100793;28;20043;-68
2023/09/21 11:27:06;;;;;;;0.10;0.00;;;16.10;99.90;;;;;;5102516;28;20040;-68
2023/09/21 11:29:33;;;;;;;0.08;0.00;;;16.00;99.90;;;;;;5101556;28;20039;-67
2023/09/21 11:32:00;;;;;;;0.00;0.00;;;16.00;99.90;;;;;;5101506;28;20317;-67
2023/09/21 11:34:26;;;;;;;0.05;0.00;;;16.00;99.90;;;;;;5103988;27;20444;-68
2023/09/21 11:36:52;;;;;;;0.00;0.00;;;16.00;99.90;;;;;;5080556;28;20032;-68
2023/09/21 11:39:22;;;;;;;0.10;0.05;;;16.00;99.90;;;;;;5085550;28;20044;-68
2023/09/21 11:41:51;;;;;;;0.08;0.00;;;16.00;99.90;;;;;;5104327;28;20047;-68
2023/09/21 11:44:17;;;;;;;0.20;0.10;;;16.00;99.90;;;;;;5098376;28;20040;-68
2023/09/21 11:46:44;;;;;;;1.30;0.10;;;16.00;99.90;;;;;;5098659;28;20043;-68
2023/09/21 11:49:10;;;;;;;0.10;0.00;;;16.00;99.90;;;;;;5100639;27;20036;-68
2023/09/21 11:51:36;;;;;;;0.10;0.00;;;16.00;99.90;;;;;;5078645;28;20113;-68
2023/09/21 11:54:04;;;;;;;2.58;0.60;;;16.00;99.90;;;;;;5101537;28;20043;-68
2023/09/21 11:56:30;;;;;;;1.38;0.52;;;16.00;99.90;;;;;;5091426;28;20108;-68
2023/09/21 11:58:59;;;;;;;2.28;0.85;;;16.00;99.90;;;;;;5099536;28;20036;-68
2023/09/21 12:01:27;;;;;;;0.52;0.10;;;15.90;99.90;;;;;;5083397;28;20031;-68
2023/09/21 12:03:56;;;;;;;0.22;0.08;;;15.90;99.90;;;;;;5098930;28;20051;-68
2023/09/21 12:06:27;;;;;;;0.00;0.00;;;15.90;99.90;;;;;;5095884;27;20062;-68
2023/09/21 12:08:54;;;;;;;0.00;0.00;;;15.90;99.90;;;;;;5105250;27;20043;-68
2023/09/21 12:11:22;;;;;;;2.13;0.95;;;15.80;99.90;;;;;;5099674;28;20334;-68
2023/09/21 12:13:48;;;;;;;2.80;2.15;;;15.80;99.90;;;;;;5115678;27;20040;-67
2023/09/21 12:16:14;;;;;;;0.17;0.10;;;15.80;99.90;;;;;;5080446;28;20035;-68
2023/09/21 12:18:39;;;;;;;0.52;0.22;;;15.80;99.90;;;;;;5095063;28;20839;-68
2023/09/21 12:21:05;;;;;;;0.28;0.03;;;15.80;99.90;;;;;;5114106;27;20040;-67
2023/09/21 12:23:31;;;;;;;0.32;0.10;;;15.80;99.90;;;;;;5098445;28;20069;-68
2023/09/21 12:25:57;;;;;;;0.00;0.00;;;15.80;99.90;;;;;;5097541;28;20067;-68
2023/09/21 12:28:23;;;;;;;0.17;0.10;;;15.90;99.90;;;;;;5099491;28;20155;-69
2023/09/21 12:30:51;;;;;;;1.35;0.85;;;15.90;99.90;;;;;;5099725;28;20129;-69
2023/09/21 12:33:17;;;;;;;1.95;0.68;;;15.90;99.90;;;;;;5100100;28;20059;-69
2023/09/21 12:35:43;;;;;;;0.75;0.28;;;15.90;99.90;;;;;;5114303;27;20408;-69
2023/09/21 12:38:11;;;;;;;0.40;0.03;;;16.00;99.90;;;;;;5099705;28;20067;-69
2023/09/21 12:40:38;;;;;;;0.20;0.00;;;15.90;99.90;;;;;;5076738;28;20606;-69
2023/09/21 12:43:05;;;;;;;0.00;0.00;;;15.90;99.90;;;;;;5096850;28;20111;-69
2023/09/21 12:45:32;;;;;;;0.30;0.10;;;15.90;99.90;;;;;;5114721;27;20039;-69
2023/09/21 12:48:01;;;;;;;0.47;0.30;;;16.00;99.90;;;;;;5095135;28;20148;-69
2023/09/21 12:50:28;;;;;;;0.30;0.05;;;16.10;99.90;;;;;;5095282;28;20069;-69
2023/09/21 12:52:54;;;;;;;0.08;0.08;;;16.00;99.90;;;;;;5110918;27;20305;-69